createdAt,value
2018-12-25T00:01:58.992Z,7.63
2018-12-25T00:06:01.320Z,8.77
2018-12-25T00:10:03.780Z,6.93
2018-12-25T00:14:06.269Z,7.07
2018-12-25T00:18:08.477Z,7.47
2018-12-25T00:22:10.775Z,8.97
2018-12-25T00:26:13.180Z,7.13
2018-12-25T00:30:15.531Z,7.33
2018-12-25T00:34:17.904Z,6.90
2018-12-25T00:38:20.261Z,7.33
2018-12-25T00:42:22.635Z,6.70
2018-12-25T00:46:24.996Z,6.50
2018-12-25T00:50:27.379Z,7.57
2018-12-25T00:54:29.717Z,7.90
2018-12-25T00:58:32.109Z,7.40
2018-12-25T01:02:34.445Z,8.20
2018-12-25T01:06:36.886Z,17.73
2018-12-25T01:10:39.242Z,8.20
2018-12-25T01:14:41.588Z,9.67
2018-12-25T01:18:43.955Z,8.50
2018-12-25T01:22:46.362Z,6.53
2018-12-25T01:26:48.737Z,6.70
2018-12-25T01:30:51.120Z,7.10
2018-12-25T01:34:53.496Z,8.83
2018-12-25T01:38:55.873Z,8.00
2018-12-25T01:42:58.342Z,7.67
2018-12-25T01:47:00.689Z,9.47
2018-12-25T01:51:03.104Z,8.83
2018-12-25T01:55:06.322Z,12.03
2018-12-25T01:59:08.700Z,28.67
2018-12-25T02:03:11.075Z,24.83
2018-12-25T02:07:13.421Z,15.37
2018-12-25T02:11:15.761Z,19.47
2018-12-25T02:15:18.115Z,15.93
2018-12-25T02:19:20.484Z,9.90
2018-12-25T02:23:22.860Z,12.73
2018-12-25T02:27:25.220Z,10.60
2018-12-25T02:31:27.562Z,16.40
2018-12-25T02:35:29.930Z,28.23
2018-12-25T02:39:32.391Z,24.20
2018-12-25T02:43:34.784Z,14.23
2018-12-25T02:47:37.076Z,13.30
2018-12-25T02:51:39.466Z,13.90
2018-12-25T02:55:41.875Z,10.73
2018-12-25T02:59:44.325Z,11.57
2018-12-25T03:03:46.680Z,11.27
2018-12-25T03:07:49.040Z,15.17
2018-12-25T03:11:51.480Z,14.67
2018-12-25T03:15:53.795Z,11.50
2018-12-25T03:20:00.038Z,10.63
2018-12-25T03:23:58.639Z,10.53
2018-12-25T03:28:00.955Z,11.33
2018-12-25T03:32:03.377Z,11.37
2018-12-25T03:36:05.837Z,10.73
2018-12-25T03:40:08.260Z,12.03
2018-12-25T03:44:10.599Z,11.83
2018-12-25T03:48:12.954Z,12.43
2018-12-25T03:52:15.309Z,10.60
2018-12-25T03:56:17.596Z,11.53
2018-12-25T04:00:19.990Z,11.67
2018-12-25T04:04:22.362Z,11.40
2018-12-25T04:08:24.701Z,19.47
2018-12-25T04:12:27.049Z,13.17
2018-12-25T04:16:29.386Z,10.10
2018-12-25T04:20:31.771Z,8.17
2018-12-25T04:24:34.125Z,10.07
2018-12-25T04:28:36.417Z,11.17
2018-12-25T04:32:38.765Z,10.57
2018-12-25T04:36:41.129Z,9.73
2018-12-25T04:40:43.509Z,9.97
2018-12-25T04:44:45.826Z,9.93
2018-12-25T04:48:48.240Z,8.10
2018-12-25T04:52:50.599Z,8.00
2018-12-25T04:56:52.897Z,7.50
2018-12-25T05:00:55.277Z,7.67
2018-12-25T05:04:57.618Z,8.70
2018-12-25T05:08:59.928Z,7.30
2018-12-25T05:13:02.310Z,6.67
2018-12-25T05:17:04.619Z,5.97
2018-12-25T05:21:06.994Z,7.07
2018-12-25T05:25:09.392Z,6.03
2018-12-25T05:29:11.728Z,6.73
2018-12-25T05:33:14.159Z,7.40
2018-12-25T05:37:16.557Z,7.27
2018-12-25T05:41:18.877Z,6.40
2018-12-25T05:45:21.288Z,8.43
2018-12-25T05:49:23.647Z,8.10
2018-12-25T05:53:26.052Z,8.23
2018-12-25T05:57:28.400Z,7.43
2018-12-25T06:01:30.734Z,8.37
2018-12-25T06:05:33.129Z,7.87
2018-12-25T06:09:35.523Z,8.47
2018-12-25T06:13:37.863Z,7.83
2018-12-25T06:17:40.189Z,7.47
2018-12-25T06:21:42.569Z,8.40
2018-12-25T06:25:45.184Z,7.77
2018-12-25T06:29:47.616Z,7.77
2018-12-25T06:33:49.977Z,7.60
2018-12-25T06:37:52.304Z,7.97
2018-12-25T06:41:54.628Z,7.83
2018-12-25T06:45:56.930Z,7.53
2018-12-25T06:49:59.269Z,7.23
2018-12-25T06:54:01.635Z,6.40
2018-12-25T06:58:03.958Z,6.53
2018-12-25T07:02:06.302Z,7.30
2018-12-25T07:06:08.619Z,8.50
2018-12-25T07:10:10.972Z,8.03
2018-12-25T07:14:13.326Z,8.00
2018-12-25T07:18:15.625Z,10.20
2018-12-25T07:22:17.981Z,8.83
2018-12-25T07:26:20.381Z,17.73
2018-12-25T07:30:22.883Z,8.23
2018-12-25T07:34:25.185Z,7.50
2018-12-25T07:38:27.468Z,6.53
2018-12-25T07:42:29.919Z,7.83
2018-12-25T07:46:32.202Z,8.20
2018-12-25T07:50:34.645Z,16.57
2018-12-25T07:54:37.042Z,9.90
2018-12-25T07:58:39.402Z,11.80
2018-12-25T08:02:41.748Z,7.30
2018-12-25T08:06:44.085Z,6.10
2018-12-25T08:14:49.798Z,7.97
2018-12-25T08:18:52.121Z,8.10
2018-12-25T08:23:02.349Z,7.73
2018-12-25T08:26:56.804Z,7.10
2018-12-25T08:30:59.111Z,6.70
2018-12-25T08:35:01.532Z,6.37
2018-12-25T08:39:05.432Z,6.73
2018-12-25T08:43:07.741Z,5.60
2018-12-25T08:47:11.631Z,7.57
2018-12-25T08:51:12.461Z,6.30
2018-12-25T08:55:14.855Z,7.83
2018-12-25T08:59:17.191Z,8.60
2018-12-25T09:03:19.545Z,8.57
2018-12-25T09:07:21.858Z,9.43
2018-12-25T09:11:24.124Z,8.93
2018-12-25T09:15:26.506Z,7.10
2018-12-25T09:19:28.893Z,7.17
2018-12-25T09:23:31.612Z,7.77
2018-12-25T09:27:33.950Z,8.00
2018-12-25T09:31:36.247Z,10.77
2018-12-25T09:35:38.565Z,6.67
2018-12-25T09:39:40.898Z,6.67
2018-12-25T09:43:43.246Z,7.50
2018-12-25T09:47:45.597Z,6.10
2018-12-25T09:51:54.473Z,6.90
2018-12-25T09:55:50.371Z,6.30
2018-12-25T09:59:52.705Z,6.57
2018-12-25T10:03:55.004Z,8.03
2018-12-25T10:07:57.346Z,5.97
2018-12-25T10:11:59.729Z,5.87
2018-12-25T10:16:02.126Z,6.80
2018-12-25T10:20:05.592Z,12.40
2018-12-25T10:24:07.939Z,7.93
2018-12-25T10:28:10.255Z,4.97
2018-12-25T10:32:12.599Z,6.27
2018-12-25T10:36:14.942Z,7.13
2018-12-25T10:40:17.279Z,6.43
2018-12-25T10:44:19.677Z,4.53
2018-12-25T10:48:22.089Z,4.60
2018-12-25T10:52:24.510Z,4.83
2018-12-25T10:56:26.900Z,4.70
2018-12-25T11:00:35.507Z,4.83
2018-12-25T11:04:37.887Z,6.20
2018-12-25T11:08:40.291Z,5.53
2018-12-25T11:12:42.685Z,5.40
2018-12-25T11:16:45.083Z,4.80
2018-12-25T11:20:47.385Z,5.30
2018-12-25T11:24:49.781Z,5.30
2018-12-25T11:28:52.402Z,5.77
2018-12-25T11:32:54.762Z,4.60
2018-12-25T11:36:57.475Z,4.20
2018-12-25T11:41:00.163Z,5.40
2018-12-25T11:45:02.559Z,5.33
2018-12-25T11:49:04.911Z,5.93
2018-12-25T11:53:07.325Z,5.63
2018-12-25T11:57:09.810Z,8.57
2018-12-25T12:01:12.741Z,5.63
2018-12-25T12:05:15.077Z,4.97
2018-12-25T12:09:17.441Z,4.87
2018-12-25T12:13:19.921Z,4.50
2018-12-25T12:17:22.330Z,6.50
2018-12-25T12:21:24.673Z,5.30
2018-12-25T12:25:27.061Z,5.23
2018-12-25T12:29:29.730Z,5.37
2018-12-25T12:33:33.548Z,5.00
2018-12-25T12:37:35.884Z,4.87
2018-12-25T12:41:39.521Z,5.50
2018-12-25T12:45:41.870Z,5.57
2018-12-25T12:49:44.328Z,5.83
2018-12-25T12:53:46.693Z,6.87
2018-12-25T12:57:49.016Z,7.10
2018-12-25T13:01:51.362Z,7.33
2018-12-25T13:05:54.388Z,5.93
2018-12-25T13:09:56.721Z,6.63
2018-12-25T13:13:59.099Z,10.23
2018-12-25T13:18:01.516Z,7.43
2018-12-25T13:22:03.963Z,8.13
2018-12-25T13:26:06.333Z,7.33
2018-12-25T13:30:09.927Z,11.00
2018-12-25T13:34:12.453Z,8.60
2018-12-25T13:38:14.759Z,7.37
2018-12-25T13:42:17.180Z,8.07
2018-12-25T13:46:19.533Z,8.00
2018-12-25T13:50:21.866Z,8.13
2018-12-25T13:54:24.279Z,8.17
2018-12-25T13:58:27.044Z,7.47
2018-12-25T14:02:29.487Z,7.57
2018-12-25T14:06:32.170Z,9.23
2018-12-25T14:10:34.642Z,9.03
2018-12-25T14:14:37.059Z,7.73
2018-12-25T14:18:39.528Z,7.17
2018-12-25T14:22:41.887Z,8.00
2018-12-25T14:26:44.389Z,10.63
2018-12-25T14:30:46.796Z,12.53
2018-12-25T14:34:49.348Z,6.90
2018-12-25T14:38:51.842Z,7.37
2018-12-25T14:42:54.223Z,6.73
2018-12-25T14:46:56.583Z,7.20
2018-12-25T14:50:59.174Z,7.13
2018-12-25T14:55:01.676Z,8.43
2018-12-25T14:59:04.035Z,9.07
2018-12-25T15:03:06.392Z,8.90
2018-12-25T15:07:08.735Z,8.73
2018-12-25T15:11:11.100Z,8.30
2018-12-25T15:15:13.411Z,10.60
2018-12-25T15:19:15.703Z,9.47
2018-12-25T15:23:27.987Z,9.40
2018-12-25T15:27:22.427Z,12.97
2018-12-25T15:31:27.887Z,12.53
2018-12-25T15:35:30.232Z,10.20
2018-12-25T15:39:33.247Z,13.27
2018-12-25T15:43:35.661Z,12.50
2018-12-25T15:47:38.026Z,12.17
2018-12-25T15:51:40.431Z,10.50
2018-12-25T15:55:42.958Z,9.57
2018-12-25T15:59:46.242Z,12.07
2018-12-25T16:03:48.838Z,13.27
2018-12-25T16:07:52.016Z,12.17
2018-12-25T16:11:54.525Z,12.03
2018-12-25T16:15:57.048Z,9.87
2018-12-25T16:19:59.482Z,10.73
2018-12-25T16:24:01.894Z,10.03
2018-12-25T16:28:04.298Z,9.40
2018-12-25T16:32:06.713Z,11.30
2018-12-25T16:36:09.058Z,12.37
2018-12-25T16:40:12.619Z,12.53
2018-12-25T16:44:15.067Z,13.07
2018-12-25T16:48:17.513Z,11.27
2018-12-25T16:52:19.978Z,12.77
2018-12-25T16:56:22.454Z,11.30
2018-12-25T17:00:24.906Z,12.13
2018-12-25T17:04:27.317Z,11.97
2018-12-25T17:08:29.720Z,11.63
2018-12-25T17:12:32.063Z,12.47
2018-12-25T17:16:34.478Z,11.03
2018-12-25T17:20:36.874Z,12.87
2018-12-25T17:24:39.339Z,12.33
2018-12-25T17:28:41.697Z,11.23
2018-12-25T17:32:44.098Z,13.17
2018-12-25T17:36:46.478Z,13.17
2018-12-25T17:40:48.883Z,12.43
2018-12-25T17:44:52.243Z,12.90
2018-12-25T17:48:54.643Z,12.43
2018-12-25T17:52:57.042Z,15.00
2018-12-25T17:56:59.455Z,12.27
2018-12-25T18:01:01.808Z,20.10
2018-12-25T18:05:11.633Z,22.10
2018-12-25T18:09:06.744Z,18.23
2018-12-25T18:13:09.119Z,17.77
2018-12-25T18:17:18.656Z,12.93
2018-12-25T18:21:14.824Z,12.77
2018-12-25T18:25:17.218Z,14.57
2018-12-25T18:29:19.567Z,13.27
2018-12-25T18:33:21.988Z,16.77
2018-12-25T18:37:24.444Z,15.30
2018-12-25T18:41:26.843Z,17.17
2018-12-25T18:45:29.322Z,14.87
2018-12-25T18:49:31.911Z,16.70
2018-12-25T18:53:35.727Z,17.17
2018-12-25T18:57:38.083Z,20.40
2018-12-25T19:01:40.506Z,19.57
2018-12-25T19:05:42.862Z,17.67
2018-12-25T19:09:45.458Z,14.83
2018-12-25T19:13:48.386Z,14.13
2018-12-25T19:17:53.382Z,13.03
2018-12-25T19:21:56.280Z,14.03
2018-12-25T19:25:58.817Z,16.63
2018-12-25T19:30:01.387Z,14.77
2018-12-25T19:34:05.833Z,12.37
2018-12-25T19:38:08.322Z,14.60
2018-12-25T19:42:10.744Z,15.07
2018-12-25T19:46:13.267Z,14.83
2018-12-25T19:50:16.856Z,15.43
2018-12-25T19:54:20.231Z,14.40
2018-12-25T19:58:22.967Z,14.80
2018-12-25T20:02:27.987Z,14.10
2018-12-25T20:08:49.419Z,15.97
2018-12-25T20:13:04.235Z,21.53
2018-12-25T20:17:21.691Z,17.23
2018-12-25T20:22:41.952Z,18.37
2018-12-25T20:27:26.963Z,15.33
2018-12-25T20:32:11.224Z,20.93
2018-12-25T20:36:30.432Z,19.47
2018-12-25T20:40:46.048Z,19.43
2018-12-25T20:45:31.118Z,19.10
2018-12-25T20:51:55.258Z,22.13
2018-12-25T20:56:19.590Z,19.27
2018-12-25T21:00:40.253Z,21.37
2018-12-25T21:04:58.663Z,24.50
2018-12-25T21:10:21.832Z,21.20
2018-12-25T21:16:42.017Z,20.93
2018-12-25T21:21:32.082Z,20.80
2018-12-25T21:25:46.561Z,21.03
2018-12-25T21:29:49.971Z,17.83
2018-12-25T21:33:52.982Z,20.63
2018-12-25T21:37:57.554Z,19.50
2018-12-25T21:42:00.242Z,21.97
2018-12-25T21:46:02.716Z,20.10
2018-12-25T21:50:05.492Z,23.73
2018-12-25T21:54:07.873Z,23.33
2018-12-25T21:58:10.336Z,24.27
2018-12-25T22:02:12.765Z,22.67
2018-12-25T22:06:16.607Z,11.67
2018-12-25T22:10:19.016Z,16.00
2018-12-25T22:14:21.441Z,12.57
2018-12-25T22:18:23.840Z,16.07
2018-12-25T22:22:26.376Z,13.37
2018-12-25T22:26:28.800Z,12.67
2018-12-25T22:30:31.282Z,14.37
2018-12-25T22:34:33.690Z,15.77
2018-12-25T22:38:36.099Z,13.40
2018-12-25T22:42:39.031Z,15.50
2018-12-25T22:46:41.447Z,19.03
2018-12-25T22:50:43.914Z,14.10
2018-12-25T22:54:46.360Z,12.77
2018-12-25T22:58:48.797Z,17.97
2018-12-25T23:02:51.169Z,13.40
2018-12-25T23:06:53.572Z,16.13
2018-12-25T23:10:55.978Z,10.57
2018-12-25T23:14:58.350Z,10.47
2018-12-25T23:19:00.772Z,8.63
2018-12-25T23:23:03.786Z,10.57
2018-12-25T23:27:06.160Z,10.17
2018-12-25T23:31:08.794Z,10.80
2018-12-25T23:35:14.264Z,10.60
2018-12-25T23:39:16.656Z,10.63
2018-12-25T23:43:18.991Z,11.33
2018-12-25T23:47:21.317Z,9.37
2018-12-25T23:51:23.755Z,8.97
2018-12-25T23:55:26.299Z,12.13
2018-12-25T23:59:28.706Z,9.73
